Time;durP1;ratioP1;P1;durP2;ratioP2;P2;SDS_P1;SDS_P2;PMS_P1;PMS_P2;Temp;Humidity;BMP_temperature;BMP_pressure;BME280_temperature;BME280_humidity;BME280_pressure;Samples;Min_cycle;Max_cycle;Signal;HPM_P1;HPM_P2
2021/06/24 00:00:52;;;;;;;5.82;3.05;;;;;;;;;;5078208;28;20421;-47
2021/06/24 00:03:19;;;;;;;8.73;3.10;;;;;;;;;;5086191;28;20028;-46
2021/06/24 00:05:45;;;;;;;6.57;3.25;;;;;;;;;;5078318;28;20040;-46
2021/06/24 00:08:12;;;;;;;4.45;3.28;;;;;;;;;;5091281;28;20028;-46
2021/06/24 00:10:39;;;;;;;4.75;3.03;;;;;;;;;;5090629;28;20158;-46
2021/06/24 00:13:05;;;;;;;4.93;3.35;;;;;;;;;;5089139;28;20077;-46
2021/06/24 00:15:31;;;;;;;4.97;3.55;;;;;;;;;;5089246;28;20028;-46
2021/06/24 00:17:57;;;;;;;5.07;3.15;;;;;;;;;;5082621;28;20039;-47
2021/06/24 00:20:23;;;;;;;6.85;3.25;;;;;;;;;;5082188;28;20096;-47
2021/06/24 00:22:50;;;;;;;5.10;3.38;;;;;;;;;;5091563;28;20305;-47
2021/06/24 00:25:16;;;;;;;6.25;3.38;;;;;;;;;;5091266;28;20482;-46
2021/06/24 00:27:42;;;;;;;7.20;3.83;;;;;;;;;;5091157;28;20122;-46
2021/06/24 00:30:09;;;;;;;5.93;3.55;;;;;;;;;;5091077;28;20491;-47
2021/06/24 00:32:35;;;;;;;11.32;3.88;;;;;;;;;;5091696;28;20028;-47
2021/06/24 00:35:01;;;;;;;4.78;3.50;;;;;;;;;;5092127;28;20480;-46
2021/06/24 00:37:28;;;;;;;3.85;2.90;;;;;;;;;;5087916;28;20031;-46
2021/06/24 00:39:54;;;;;;;10.52;3.95;;;;;;;;;;5090041;28;20107;-47
2021/06/24 00:42:20;;;;;;;6.10;3.47;;;;;;;;;;5095605;28;20523;-46
2021/06/24 00:44:46;;;;;;;4.93;3.72;;;;;;;;;;5095388;28;20030;-47
2021/06/24 00:47:12;;;;;;;6.75;3.35;;;;;;;;;;5093438;28;20032;-47
2021/06/24 00:49:38;;;;;;;6.05;3.10;;;;;;;;;;5091465;28;20064;-46
2021/06/24 00:52:04;;;;;;;5.68;3.80;;;;;;;;;;5080172;28;20472;-46
2021/06/24 00:54:30;;;;;;;7.30;3.33;;;;;;;;;;5079434;28;20111;-47
2021/06/24 00:56:56;;;;;;;6.75;4.28;;;;;;;;;;5076673;28;20035;-46
2021/06/24 00:59:22;;;;;;;5.75;3.28;;;;;;;;;;5093744;28;20055;-47
2021/06/24 01:01:48;;;;;;;5.28;3.50;;;;;;;;;;5094031;28;20012;-47
2021/06/24 01:04:21;;;;;;;5.88;3.95;;;;;;;;;;5094706;28;20115;-46
2021/06/24 01:06:47;;;;;;;6.27;3.43;;;;;;;;;;5089907;28;20040;-46
2021/06/24 01:09:13;;;;;;;4.50;3.65;;;;;;;;;;5080967;28;20840;-47
2021/06/24 01:11:40;;;;;;;6.32;3.92;;;;;;;;;;5088372;28;20028;-47
2021/06/24 01:14:06;;;;;;;6.50;3.55;;;;;;;;;;5092843;28;20036;-46
2021/06/24 01:16:32;;;;;;;8.00;3.78;;;;;;;;;;5091177;28;20059;-47
2021/06/24 01:18:58;;;;;;;5.80;3.83;;;;;;;;;;5071894;28;20032;-46
2021/06/24 01:21:24;;;;;;;5.68;3.72;;;;;;;;;;5094161;28;20081;-46
2021/06/24 01:23:50;;;;;;;8.45;4.25;;;;;;;;;;5094490;28;20039;-48
2021/06/24 01:26:16;;;;;;;4.68;3.53;;;;;;;;;;5087967;28;20032;-46
2021/06/24 01:28:42;;;;;;;11.35;4.20;;;;;;;;;;5074712;28;20036;-48
2021/06/24 01:31:08;;;;;;;6.25;3.40;;;;;;;;;;5080198;28;20044;-47
2021/06/24 01:33:34;;;;;;;6.10;3.72;;;;;;;;;;5084962;28;20051;-46
2021/06/24 01:36:01;;;;;;;7.55;3.97;;;;;;;;;;5078263;28;20028;-47
2021/06/24 01:38:28;;;;;;;5.53;3.15;;;;;;;;;;5086098;28;20404;-47
2021/06/24 01:40:54;;;;;;;5.07;3.42;;;;;;;;;;5089959;28;20020;-48
2021/06/24 01:43:20;;;;;;;7.18;3.65;;;;;;;;;;5092234;28;20024;-46
2021/06/24 01:45:46;;;;;;;7.03;3.92;;;;;;;;;;5086558;28;20052;-47
2021/06/24 01:48:12;;;;;;;7.55;3.72;;;;;;;;;;5092800;28;20039;-46
2021/06/24 01:50:38;;;;;;;5.93;4.45;;;;;;;;;;5085364;28;20073;-46
2021/06/24 01:53:04;;;;;;;8.10;4.78;;;;;;;;;;5085565;28;20528;-47
2021/06/24 01:55:35;;;;;;;8.27;4.45;;;;;;;;;;5092003;28;20047;-46
2021/06/24 01:58:01;;;;;;;8.77;4.63;;;;;;;;;;5084537;28;20034;-46
2021/06/24 02:00:27;;;;;;;10.18;4.60;;;;;;;;;;5093332;28;20100;-47
2021/06/24 02:02:54;;;;;;;6.18;4.45;;;;;;;;;;5094101;28;20086;-47
2021/06/24 02:05:20;;;;;;;9.93;4.55;;;;;;;;;;5091489;28;20048;-48
2021/06/24 02:07:46;;;;;;;9.88;4.10;;;;;;;;;;5090608;28;20074;-46
2021/06/24 02:10:12;;;;;;;7.78;3.90;;;;;;;;;;5092331;28;20040;-48
2021/06/24 02:12:38;;;;;;;8.45;4.22;;;;;;;;;;5082533;28;20069;-46
2021/06/24 02:15:05;;;;;;;7.53;4.47;;;;;;;;;;5082148;28;20031;-47
2021/06/24 02:17:31;;;;;;;8.65;4.00;;;;;;;;;;5089471;28;20027;-47
2021/06/24 02:19:57;;;;;;;6.18;3.90;;;;;;;;;;5085805;28;20389;-47
2021/06/24 02:22:24;;;;;;;10.00;4.57;;;;;;;;;;5087940;28;20107;-47
2021/06/24 02:24:50;;;;;;;8.40;4.93;;;;;;;;;;5090940;28;20135;-46
2021/06/24 02:27:16;;;;;;;6.63;4.38;;;;;;;;;;5092802;28;20115;-47
2021/06/24 02:29:41;;;;;;;6.82;4.43;;;;;;;;;;5091223;28;20028;-47
2021/06/24 02:32:08;;;;;;;8.45;4.22;;;;;;;;;;5086017;28;20361;-47
2021/06/24 02:34:34;;;;;;;6.75;4.00;;;;;;;;;;5093390;28;20053;-46
2021/06/24 02:37:01;;;;;;;7.75;4.95;;;;;;;;;;5069595;28;20074;-46
2021/06/24 02:39:27;;;;;;;5.43;4.43;;;;;;;;;;5075505;28;20020;-47
2021/06/24 02:41:53;;;;;;;7.00;4.82;;;;;;;;;;5087114;28;20031;-46
2021/06/24 02:44:19;;;;;;;11.18;4.63;;;;;;;;;;5081702;28;20056;-46
2021/06/24 02:46:45;;;;;;;6.22;4.53;;;;;;;;;;5091380;28;20031;-46
2021/06/24 02:49:12;;;;;;;9.52;4.82;;;;;;;;;;5090218;28;20482;-46
2021/06/24 02:51:38;;;;;;;12.10;4.72;;;;;;;;;;5092827;28;20028;-48
2021/06/24 02:54:04;;;;;;;10.40;5.18;;;;;;;;;;5086613;28;20038;-47
2021/06/24 02:56:33;;;;;;;7.80;4.32;;;;;;;;;;5090954;28;20107;-47
2021/06/24 02:58:58;;;;;;;5.43;4.13;;;;;;;;;;5082956;28;20103;-47
2021/06/24 03:01:24;;;;;;;7.43;4.50;;;;;;;;;;5085325;28;20070;-47
2021/06/24 03:03:50;;;;;;;10.60;4.93;;;;;;;;;;5081841;28;20043;-47
2021/06/24 03:06:16;;;;;;;5.57;4.18;;;;;;;;;;5082115;28;20028;-46
2021/06/24 03:08:42;;;;;;;6.18;4.38;;;;;;;;;;5082673;28;20046;-47
2021/06/24 03:11:08;;;;;;;7.38;4.10;;;;;;;;;;5082361;28;20024;-46
2021/06/24 03:13:34;;;;;;;6.22;3.85;;;;;;;;;;5091583;28;20379;-49
2021/06/24 03:16:00;;;;;;;9.52;4.70;;;;;;;;;;5084207;28;20039;-47
2021/06/24 03:18:26;;;;;;;8.18;4.15;;;;;;;;;;5082215;28;20038;-46
2021/06/24 03:20:52;;;;;;;7.75;4.30;;;;;;;;;;5082376;28;20032;-46
2021/06/24 03:23:19;;;;;;;9.80;4.82;;;;;;;;;;5085533;28;20124;-47
2021/06/24 03:25:45;;;;;;;6.72;4.30;;;;;;;;;;5085985;28;20028;-49
2021/06/24 03:28:11;;;;;;;9.15;4.22;;;;;;;;;;5068440;28;20051;-47
2021/06/24 03:30:37;;;;;;;6.72;4.03;;;;;;;;;;5076295;28;20060;-47
2021/06/24 03:33:03;;;;;;;9.93;4.03;;;;;;;;;;5082493;28;20504;-46
2021/06/24 03:35:29;;;;;;;13.57;5.25;;;;;;;;;;5082008;28;20055;-47
2021/06/24 03:37:55;;;;;;;11.30;5.72;;;;;;;;;;5089304;28;20490;-47
2021/06/24 03:40:22;;;;;;;7.28;4.30;;;;;;;;;;5086752;28;20052;-47
2021/06/24 03:42:48;;;;;;;8.32;4.90;;;;;;;;;;5080398;28;20024;-47
2021/06/24 03:45:15;;;;;;;12.13;5.55;;;;;;;;;;5085533;28;20036;-47
2021/06/24 03:47:41;;;;;;;10.23;5.50;;;;;;;;;;5083833;28;20413;-46
2021/06/24 03:50:08;;;;;;;12.93;5.43;;;;;;;;;;5087954;28;20517;-48
2021/06/24 03:52:34;;;;;;;14.38;5.40;;;;;;;;;;5084366;28;20624;-46
2021/06/24 03:55:00;;;;;;;10.65;5.40;;;;;;;;;;5084565;28;20036;-46
2021/06/24 03:57:26;;;;;;;9.93;5.13;;;;;;;;;;5091180;28;20520;-47
2021/06/24 03:59:52;;;;;;;9.50;5.70;;;;;;;;;;5088856;28;20060;-46
2021/06/24 04:02:19;;;;;;;9.55;4.75;;;;;;;;;;5077479;28;20064;-47
2021/06/24 04:04:45;;;;;;;14.13;5.70;;;;;;;;;;5083775;28;20040;-47
2021/06/24 04:07:12;;;;;;;11.20;5.47;;;;;;;;;;5089030;28;20031;-47
2021/06/24 04:09:38;;;;;;;9.55;5.00;;;;;;;;;;5085401;28;20067;-47
2021/06/24 04:12:04;;;;;;;8.75;4.43;;;;;;;;;;5087764;28;20032;-47
2021/06/24 04:14:30;;;;;;;13.45;5.45;;;;;;;;;;5091201;28;20162;-46
2021/06/24 04:16:56;;;;;;;10.73;5.85;;;;;;;;;;5087294;28;20028;-47
2021/06/24 04:19:22;;;;;;;11.80;5.15;;;;;;;;;;5087007;28;20106;-46
2021/06/24 04:21:48;;;;;;;8.02;5.10;;;;;;;;;;5091899;28;20107;-47
2021/06/24 04:24:14;;;;;;;8.43;4.82;;;;;;;;;;5090889;28;20112;-47
2021/06/24 04:26:40;;;;;;;8.65;4.97;;;;;;;;;;5082258;28;20457;-47
2021/06/24 04:29:06;;;;;;;9.60;4.80;;;;;;;;;;5084517;28;20103;-48
2021/06/24 04:31:32;;;;;;;9.68;5.13;;;;;;;;;;5073612;28;20112;-46
2021/06/24 04:33:58;;;;;;;7.45;4.95;;;;;;;;;;5089513;28;20028;-47
2021/06/24 04:36:24;;;;;;;9.18;4.85;;;;;;;;;;5091106;28;20032;-46
2021/06/24 04:38:51;;;;;;;8.25;4.78;;;;;;;;;;5088112;28;20403;-46
2021/06/24 04:41:16;;;;;;;6.72;4.85;;;;;;;;;;5080170;28;20491;-46
2021/06/24 04:43:42;;;;;;;11.82;5.47;;;;;;;;;;5084290;28;20025;-47
2021/06/24 04:46:08;;;;;;;14.82;6.22;;;;;;;;;;5071421;28;20546;-48
2021/06/24 04:48:34;;;;;;;11.48;5.32;;;;;;;;;;5079997;28;20074;-47
2021/06/24 04:51:00;;;;;;;9.90;4.97;;;;;;;;;;5083832;28;20096;-47
2021/06/24 04:53:26;;;;;;;10.50;4.70;;;;;;;;;;5090290;28;20107;-47
2021/06/24 04:55:52;;;;;;;10.88;5.45;;;;;;;;;;5080725;28;20039;-47
2021/06/24 04:58:18;;;;;;;9.98;4.82;;;;;;;;;;5089320;28;20074;-46
2021/06/24 05:00:44;;;;;;;8.23;4.78;;;;;;;;;;5088940;28;20056;-48
2021/06/24 05:03:11;;;;;;;8.05;4.20;;;;;;;;;;5089531;28;20066;-47
2021/06/24 05:05:38;;;;;;;7.68;4.45;;;;;;;;;;5086436;28;20028;-47
2021/06/24 05:08:17;;;;;;;13.23;4.82;;;;;;;;;;5087845;28;20051;-48
2021/06/24 05:10:44;;;;;;;9.98;5.13;;;;;;;;;;5083272;28;20775;-48
2021/06/24 05:13:10;;;;;;;8.55;4.05;;;;;;;;;;5088530;28;20020;-47
2021/06/24 05:15:36;;;;;;;7.68;4.53;;;;;;;;;;5082928;28;20585;-47
2021/06/24 05:18:03;;;;;;;15.73;5.50;;;;;;;;;;5079979;28;20368;-46
2021/06/24 05:20:29;;;;;;;9.40;5.40;;;;;;;;;;5073389;28;20502;-47
2021/06/24 05:22:55;;;;;;;9.57;4.85;;;;;;;;;;5082201;28;20085;-46
2021/06/24 05:25:21;;;;;;;9.15;5.25;;;;;;;;;;5091231;28;20102;-46
2021/06/24 05:27:47;;;;;;;6.18;4.95;;;;;;;;;;5094328;28;20157;-47
2021/06/24 05:30:14;;;;;;;12.90;4.90;;;;;;;;;;5090300;28;20052;-48
2021/06/24 05:32:41;;;;;;;13.00;6.00;;;;;;;;;;5085983;28;20454;-47
2021/06/24 05:35:07;;;;;;;9.80;4.65;;;;;;;;;;5091640;28;20020;-47
2021/06/24 05:37:33;;;;;;;8.68;4.63;;;;;;;;;;5092633;28;20065;-47
2021/06/24 05:39:59;;;;;;;8.52;4.47;;;;;;;;;;5086174;28;20036;-47
2021/06/24 05:42:25;;;;;;;11.15;4.95;;;;;;;;;;5086420;28;20020;-47
2021/06/24 05:44:51;;;;;;;13.95;5.50;;;;;;;;;;5082039;28;20029;-47
2021/06/24 05:47:17;;;;;;;6.90;4.70;;;;;;;;;;5086916;28;20028;-46
2021/06/24 05:49:43;;;;;;;13.85;4.82;;;;;;;;;;5087008;28;20071;-47
2021/06/24 05:52:09;;;;;;;7.45;5.18;;;;;;;;;;5081139;28;20028;-47
2021/06/24 05:54:35;;;;;;;8.02;4.93;;;;;;;;;;5087496;28;20475;-47
2021/06/24 05:57:01;;;;;;;10.25;5.28;;;;;;;;;;5078114;28;20044;-47
2021/06/24 05:59:27;;;;;;;11.77;5.28;;;;;;;;;;5087163;28;20024;-47
2021/06/24 06:01:53;;;;;;;7.45;4.78;;;;;;;;;;5085026;28;20016;-47
2021/06/24 06:04:19;;;;;;;9.90;5.50;;;;;;;;;;5091952;28;20082;-47
2021/06/24 06:06:45;;;;;;;8.50;5.20;;;;;;;;;;5090577;28;20021;-46
2021/06/24 06:09:12;;;;;;;9.70;5.57;;;;;;;;;;5091341;28;20482;-47
2021/06/24 06:11:38;;;;;;;7.63;5.30;;;;;;;;;;5077677;28;20013;-48
2021/06/24 06:14:04;;;;;;;8.85;5.72;;;;;;;;;;5084092;28;20032;-47
2021/06/24 06:16:30;;;;;;;11.30;5.25;;;;;;;;;;5078389;28;20035;-47
2021/06/24 06:18:56;;;;;;;7.68;4.95;;;;;;;;;;5088533;28;20377;-46
2021/06/24 06:21:23;;;;;;;11.20;5.78;;;;;;;;;;5089629;28;20042;-47
2021/06/24 06:23:49;;;;;;;10.80;6.97;;;;;;;;;;5083909;28;20031;-48
2021/06/24 06:26:15;;;;;;;9.70;6.28;;;;;;;;;;5074461;28;20020;-46
2021/06/24 06:28:41;;;;;;;12.38;6.00;;;;;;;;;;5084105;28;20030;-48
2021/06/24 06:31:07;;;;;;;12.90;6.03;;;;;;;;;;5090940;28;20117;-47
2021/06/24 06:33:33;;;;;;;10.48;6.18;;;;;;;;;;5086503;28;20529;-51
2021/06/24 06:35:59;;;;;;;10.25;5.13;;;;;;;;;;5083023;28;20047;-47
2021/06/24 06:38:25;;;;;;;9.88;6.18;;;;;;;;;;5086752;28;20028;-47
2021/06/24 06:40:51;;;;;;;10.85;5.78;;;;;;;;;;5082105;28;20032;-49
2021/06/24 06:43:19;;;;;;;11.80;7.05;;;;;;;;;;5092787;28;20028;-47
2021/06/24 06:45:45;;;;;;;9.40;5.93;;;;;;;;;;5089819;28;20041;-47
2021/06/24 06:48:11;;;;;;;11.98;6.18;;;;;;;;;;5093294;28;20032;-47
2021/06/24 06:50:38;;;;;;;13.10;7.00;;;;;;;;;;5086827;28;20082;-48
2021/06/24 06:53:05;;;;;;;11.35;6.53;;;;;;;;;;5077130;28;20412;-46
2021/06/24 06:55:31;;;;;;;16.42;6.93;;;;;;;;;;5092586;28;20032;-51
2021/06/24 06:57:59;;;;;;;13.90;6.75;;;;;;;;;;5087523;28;20028;-49
2021/06/24 07:00:26;;;;;;;13.77;7.20;;;;;;;;;;5076593;28;20062;-49
2021/06/24 07:02:53;;;;;;;12.77;6.65;;;;;;;;;;5078447;28;20032;-50
2021/06/24 07:05:19;;;;;;;16.17;7.00;;;;;;;;;;5084232;28;20054;-47
2021/06/24 07:07:45;;;;;;;17.63;8.65;;;;;;;;;;5078550;28;20705;-48
2021/06/24 07:10:11;;;;;;;15.57;7.07;;;;;;;;;;5090909;28;20107;-46
2021/06/24 07:12:37;;;;;;;12.60;7.63;;;;;;;;;;5085118;28;20416;-47
2021/06/24 07:15:04;;;;;;;18.52;8.60;;;;;;;;;;5087744;28;20119;-47
2021/06/24 07:17:30;;;;;;;14.65;8.32;;;;;;;;;;5086957;28;20020;-47
2021/06/24 07:19:56;;;;;;;14.27;8.60;;;;;;;;;;5081956;28;20027;-47
2021/06/24 07:22:22;;;;;;;17.33;8.45;;;;;;;;;;5091004;28;20066;-47
2021/06/24 07:24:48;;;;;;;15.45;8.05;;;;;;;;;;5082759;28;20062;-47
2021/06/24 07:27:14;;;;;;;10.90;7.80;;;;;;;;;;5079546;28;20035;-47
2021/06/24 07:29:40;;;;;;;14.32;8.30;;;;;;;;;;5086419;28;20024;-47
2021/06/24 07:32:06;;;;;;;16.00;8.43;;;;;;;;;;5078884;28;20102;-47
2021/06/24 07:34:32;;;;;;;15.18;8.10;;;;;;;;;;5087568;28;20486;-46
2021/06/24 07:36:58;;;;;;;16.17;8.20;;;;;;;;;;5091707;28;20024;-47
2021/06/24 07:39:26;;;;;;;12.50;8.98;;;;;;;;;;5087993;28;20036;-46
2021/06/24 07:41:52;;;;;;;14.43;8.38;;;;;;;;;;5081719;28;20032;-46
2021/06/24 07:44:18;;;;;;;14.13;8.23;;;;;;;;;;5086267;28;20054;-47
2021/06/24 07:46:45;;;;;;;12.77;8.60;;;;;;;;;;5080425;28;20043;-47
2021/06/24 07:49:11;;;;;;;17.40;8.23;;;;;;;;;;5090437;28;20036;-47
2021/06/24 07:51:37;;;;;;;14.25;8.48;;;;;;;;;;5083618;28;20031;-46
2021/06/24 07:54:03;;;;;;;15.38;9.13;;;;;;;;;;5081382;28;20738;-47
2021/06/24 07:56:29;;;;;;;16.85;8.23;;;;;;;;;;5085653;28;20031;-47
2021/06/24 07:58:55;;;;;;;16.27;8.43;;;;;;;;;;5069006;28;20033;-47
2021/06/24 08:01:21;;;;;;;18.48;8.20;;;;;;;;;;5076632;28;20203;-47
2021/06/24 08:03:47;;;;;;;17.05;8.82;;;;;;;;;;5089724;28;20111;-48
2021/06/24 08:06:13;;;;;;;19.30;8.48;;;;;;;;;;5091816;28;20024;-47
2021/06/24 08:08:39;;;;;;;13.10;8.30;;;;;;;;;;5091512;28;20077;-47
2021/06/24 08:11:05;;;;;;;13.07;9.30;;;;;;;;;;5092339;28;20463;-46
2021/06/24 08:13:31;;;;;;;12.40;7.78;;;;;;;;;;5077676;28;20062;-47
2021/06/24 08:15:57;;;;;;;11.38;7.85;;;;;;;;;;5084191;28;20066;-48
2021/06/24 08:18:23;;;;;;;13.98;7.40;;;;;;;;;;5080548;28;20028;-47
2021/06/24 08:20:50;;;;;;;13.85;7.13;;;;;;;;;;5088981;28;20024;-47
2021/06/24 08:23:16;;;;;;;14.00;8.30;;;;;;;;;;5082440;28;20070;-47
2021/06/24 08:25:42;;;;;;;12.63;8.50;;;;;;;;;;5082541;28;20035;-46
2021/06/24 08:28:10;;;;;;;13.95;8.60;;;;;;;;;;5082600;28;20119;-47
2021/06/24 08:30:37;;;;;;;18.60;8.35;;;;;;;;;;5080656;28;20048;-47
2021/06/24 08:33:04;;;;;;;15.88;8.60;;;;;;;;;;5078869;28;20036;-47
2021/06/24 08:35:30;;;;;;;15.80;8.65;;;;;;;;;;5088195;28;20735;-47
2021/06/24 08:37:58;;;;;;;14.52;8.50;;;;;;;;;;5086178;28;20031;-48
2021/06/24 08:40:24;;;;;;;15.63;8.70;;;;;;;;;;5088445;28;20035;-47
2021/06/24 08:42:50;;;;;;;14.55;8.65;;;;;;;;;;5091164;28;20020;-47
2021/06/24 08:45:16;;;;;;;17.73;8.55;;;;;;;;;;5084315;28;20099;-46
2021/06/24 08:47:46;;;;;;;15.90;9.45;;;;;;;;;;5078236;28;20034;-47
2021/06/24 08:50:13;;;;;;;17.38;9.27;;;;;;;;;;5074364;28;20046;-47
2021/06/24 08:52:41;;;;;;;17.85;9.98;;;;;;;;;;5083478;28;20039;-47
2021/06/24 08:55:07;;;;;;;17.13;8.77;;;;;;;;;;5083295;28;20521;-47
2021/06/24 08:57:34;;;;;;;16.13;9.32;;;;;;;;;;5092306;28;20463;-47
2021/06/24 09:00:00;;;;;;;17.38;9.52;;;;;;;;;;5095940;28;20103;-48
2021/06/24 09:02:50;;;;;;;16.08;8.27;;;;;;;;;;5086768;28;20031;-47
2021/06/24 09:05:16;;;;;;;12.60;8.95;;;;;;;;;;5080526;28;20461;-48
2021/06/24 09:07:52;;;;;;;17.45;10.65;;;;;;;;;;5078781;28;20365;-48
2021/06/24 09:10:19;;;;;;;17.88;9.45;;;;;;;;;;5073630;28;20028;-47
2021/06/24 09:13:03;;;;;;;16.25;7.72;;;;;;;;;;5095190;28;20081;-47
2021/06/24 09:15:37;;;;;;;19.33;10.48;;;;;;;;;;5084350;28;20031;-47
2021/06/24 09:18:03;;;;;;;;;;;;;;;;;;5095634;28;20450;-47
2021/06/24 09:20:30;;;;;;;16.88;8.65;;;;;;;;;;5095032;28;19911;-47
2021/06/24 09:23:12;;;;;;;15.30;8.68;;;;;;;;;;5089957;28;20095;-48
2021/06/24 09:25:40;;;;;;;15.32;8.57;;;;;;;;;;5086828;28;20118;-49
2021/06/24 09:28:06;;;;;;;15.85;9.40;;;;;;;;;;5088412;28;20451;-47
2021/06/24 09:30:35;;;;;;;19.13;9.70;;;;;;;;;;5085967;28;20709;-47
2021/06/24 09:33:11;;;;;;;18.10;9.38;;;;;;;;;;5073045;28;20066;-47
2021/06/24 09:35:37;;;;;;;14.90;9.75;;;;;;;;;;5092353;28;20027;-47
2021/06/24 09:38:14;;;;;;;16.20;9.35;;;;;;;;;;5063252;28;20024;-47
2021/06/24 09:40:42;;;;;;;17.88;9.82;;;;;;;;;;5091507;28;20047;-47
2021/06/24 09:43:08;;;;;;;17.65;8.68;;;;;;;;;;5090645;28;20028;-46
2021/06/24 09:45:34;;;;;;;14.93;9.85;;;;;;;;;;5088633;28;20028;-47
2021/06/24 09:48:07;;;;;;;16.25;8.93;;;;;;;;;;5088745;28;20066;-47
2021/06/24 09:50:34;;;;;;;19.30;10.90;;;;;;;;;;5085720;28;20092;-47
2021/06/24 09:53:13;;;;;;;17.63;9.90;;;;;;;;;;5094499;28;20039;-47
2021/06/24 09:55:39;;;;;;;15.05;9.00;;;;;;;;;;5092389;28;20036;-47
2021/06/24 09:58:16;;;;;;;18.70;10.25;;;;;;;;;;5089986;28;20032;-47
2021/06/24 10:00:52;;;;;;;17.40;9.30;;;;;;;;;;5088800;28;20024;-47
2021/06/24 10:03:19;;;;;;;18.60;8.23;;;;;;;;;;5076926;28;20056;-49
2021/06/24 10:05:45;;;;;;;16.08;9.25;;;;;;;;;;5092633;28;20024;-47
2021/06/24 10:08:12;;;;;;;17.63;8.80;;;;;;;;;;5083477;28;20039;-48
2021/06/24 10:10:39;;;;;;;17.67;9.63;;;;;;;;;;5079382;28;20024;-48
2021/06/24 10:13:06;;;;;;;15.60;8.43;;;;;;;;;;5084417;28;20048;-47
2021/06/24 10:15:33;;;;;;;12.80;8.85;;;;;;;;;;5083813;28;20115;-48
2021/06/24 10:17:59;;;;;;;14.00;8.93;;;;;;;;;;5093524;28;20024;-47
2021/06/24 10:20:27;;;;;;;15.35;8.32;;;;;;;;;;5088901;28;20490;-47
2021/06/24 10:23:05;;;;;;;18.60;9.85;;;;;;;;;;5079316;28;20032;-47
2021/06/24 10:25:32;;;;;;;14.38;9.48;;;;;;;;;;5086261;28;20050;-48
2021/06/24 10:27:59;;;;;;;14.65;9.85;;;;;;;;;;5088039;28;20059;-48
2021/06/24 10:30:26;;;;;;;14.55;8.82;;;;;;;;;;5089325;28;20055;-48
2021/06/24 10:33:03;;;;;;;15.80;10.68;;;;;;;;;;5091287;28;20032;-47
2021/06/24 10:35:35;;;;;;;18.30;10.73;;;;;;;;;;5074703;28;20448;-47
2021/06/24 10:38:02;;;;;;;20.15;9.93;;;;;;;;;;5091641;28;20028;-48
2021/06/24 10:40:32;;;;;;;17.13;9.60;;;;;;;;;;5092149;28;20154;-47
2021/06/24 10:42:59;;;;;;;16.75;9.82;;;;;;;;;;5085361;28;20043;-47
2021/06/24 10:45:26;;;;;;;15.93;9.68;;;;;;;;;;5088069;28;20093;-47
2021/06/24 10:47:55;;;;;;;13.63;7.95;;;;;;;;;;5089826;28;20410;-50
2021/06/24 10:50:27;;;;;;;22.48;9.82;;;;;;;;;;5080753;28;20533;-47
2021/06/24 10:52:53;;;;;;;18.60;8.75;;;;;;;;;;5092932;28;20040;-48
2021/06/24 10:55:32;;;;;;;19.00;7.55;;;;;;;;;;5088509;28;20500;-49
2021/06/24 10:57:58;;;;;;;15.20;9.20;;;;;;;;;;5083248;28;20871;-47
2021/06/24 11:00:43;;;;;;;13.98;8.38;;;;;;;;;;5087371;28;20040;-47
2021/06/24 11:03:10;;;;;;;14.85;7.85;;;;;;;;;;5066969;28;20028;-47
2021/06/24 11:05:40;;;;;;;17.15;9.02;;;;;;;;;;5079793;28;20035;-47
2021/06/24 11:08:13;;;;;;;19.48;8.75;;;;;;;;;;5084877;28;20064;-47
2021/06/24 11:10:58;;;;;;;15.77;8.95;;;;;;;;;;5081810;28;20506;-47
2021/06/24 11:13:36;;;;;;;14.90;8.20;;;;;;;;;;5086711;28;20067;-48
2021/06/24 11:16:20;;;;;;;14.45;8.18;;;;;;;;;;5086592;28;20364;-51
2021/06/24 11:18:47;;;;;;;14.10;8.13;;;;;;;;;;5079149;28;20016;-47
2021/06/24 11:21:28;;;;;;;10.90;7.03;;;;;;;;;;5084515;28;20024;-48
2021/06/24 11:24:01;;;;;;;15.57;7.68;;;;;;;;;;5078915;28;20032;-48
2021/06/24 11:26:27;;;;;;;12.35;7.28;;;;;;;;;;5087528;28;20077;-46
2021/06/24 11:31:45;;;;;;;11.95;7.63;;;;;;;;;;5086540;28;20052;-47
2021/06/24 11:36:47;;;;;;;10.65;6.57;;;;;;;;;;5085717;28;20028;-47
2021/06/24 11:39:20;;;;;;;14.60;7.53;;;;;;;;;;5079176;28;20024;-50
2021/06/24 11:41:46;;;;;;;;;;;;;;;;;;5088025;28;20021;-47
2021/06/24 11:44:12;;;;;;;14.13;7.85;;;;;;;;;;5080913;28;19904;-47
2021/06/24 11:46:38;;;;;;;10.40;5.30;;;;;;;;;;5086450;28;20100;-47
2021/06/24 12:05:07;;;;;;;10.63;4.47;;;;;;;;;;5090352;28;20390;-48
2021/06/24 12:07:37;;;;;;;7.43;4.38;;;;;;;;;;5092222;28;20111;-48
2021/06/24 12:10:05;;;;;;;5.75;3.72;;;;;;;;;;5091621;28;20482;-47
2021/06/24 12:12:32;;;;;;;10.48;4.22;;;;;;;;;;5086679;28;20029;-49
2021/06/24 12:15:02;;;;;;;7.43;4.43;;;;;;;;;;5080076;28;20352;-48
2021/06/24 12:17:35;;;;;;;9.73;4.20;;;;;;;;;;5089384;28;20020;-47
2021/06/24 12:20:04;;;;;;;7.82;4.43;;;;;;;;;;5076883;28;20037;-49
2021/06/24 12:22:37;;;;;;;7.43;3.95;;;;;;;;;;5085202;28;20028;-47
2021/06/24 12:25:05;;;;;;;9.50;3.72;;;;;;;;;;5076898;28;20039;-47
2021/06/24 12:27:33;;;;;;;9.55;4.25;;;;;;;;;;5071742;28;20028;-48
2021/06/24 12:30:08;;;;;;;6.13;3.72;;;;;;;;;;5088301;28;20027;-51
2021/06/24 12:32:34;;;;;;;7.88;3.97;;;;;;;;;;5093862;28;20039;-48
2021/06/24 12:35:01;;;;;;;7.00;3.47;;;;;;;;;;5090524;28;20043;-48
2021/06/24 12:37:32;;;;;;;5.60;3.50;;;;;;;;;;5084765;28;20024;-49
2021/06/24 12:39:58;;;;;;;6.47;3.60;;;;;;;;;;5084539;28;20414;-47
2021/06/24 12:42:24;;;;;;;6.22;3.17;;;;;;;;;;5083351;28;20024;-47
2021/06/24 12:44:50;;;;;;;8.15;4.40;;;;;;;;;;5090636;28;20593;-48
2021/06/24 12:47:37;;;;;;;6.40;3.70;;;;;;;;;;5090990;28;20168;-47
2021/06/24 12:50:10;;;;;;;7.80;3.70;;;;;;;;;;5092362;28;20040;-52
2021/06/24 12:52:36;;;;;;;7.63;3.63;;;;;;;;;;5095284;28;20035;-48
2021/06/24 12:55:02;;;;;;;6.13;3.67;;;;;;;;;;5086437;28;20032;-49
2021/06/24 12:57:28;;;;;;;4.90;3.20;;;;;;;;;;5087164;28;20020;-50
2021/06/24 12:59:54;;;;;;;6.22;2.95;;;;;;;;;;5078590;28;20032;-50
2021/06/24 13:02:20;;;;;;;6.68;3.40;;;;;;;;;;5082744;28;20766;-49
2021/06/24 13:04:46;;;;;;;5.22;2.92;;;;;;;;;;5085345;28;20459;-52
2021/06/24 13:07:12;;;;;;;7.50;3.30;;;;;;;;;;5084377;28;20127;-48
2021/06/24 13:09:43;;;;;;;9.00;3.38;;;;;;;;;;5088066;28;20035;-48
2021/06/24 13:12:09;;;;;;;4.78;2.97;;;;;;;;;;5095271;28;20371;-48
2021/06/24 13:14:37;;;;;;;4.82;2.85;;;;;;;;;;5091379;28;20023;-48
2021/06/24 13:17:12;;;;;;;7.55;2.92;;;;;;;;;;5087629;28;20443;-47
2021/06/24 13:19:40;;;;;;;5.65;3.00;;;;;;;;;;5082810;28;20043;-48
2021/06/24 13:22:09;;;;;;;5.05;3.33;;;;;;;;;;5077782;28;20024;-47
2021/06/24 13:24:44;;;;;;;6.07;3.17;;;;;;;;;;5082051;28;20059;-48
2021/06/24 13:27:22;;;;;;;8.02;3.30;;;;;;;;;;5091745;28;20032;-50
2021/06/24 13:29:57;;;;;;;7.40;3.00;;;;;;;;;;5086536;28;20165;-48
2021/06/24 13:32:28;;;;;;;6.22;3.13;;;;;;;;;;5089835;28;20020;-48
2021/06/24 13:34:54;;;;;;;13.13;3.45;;;;;;;;;;5083481;28;20024;-47
2021/06/24 13:37:20;;;;;;;5.78;3.70;;;;;;;;;;5092439;28;20145;-48
2021/06/24 13:39:47;;;;;;;5.72;3.40;;;;;;;;;;5094742;28;20020;-48
2021/06/24 13:42:13;;;;;;;12.48;3.90;;;;;;;;;;5080728;28;20116;-50
2021/06/24 13:44:39;;;;;;;8.10;4.07;;;;;;;;;;5084968;28;20484;-50
2021/06/24 13:47:05;;;;;;;5.20;3.65;;;;;;;;;;5091143;28;20481;-50
2021/06/24 13:49:31;;;;;;;5.82;3.90;;;;;;;;;;5094171;28;20431;-49
2021/06/24 13:51:58;;;;;;;7.80;4.90;;;;;;;;;;5084654;28;20020;-49
2021/06/24 13:54:26;;;;;;;9.07;5.00;;;;;;;;;;5082811;28;20020;-47
2021/06/24 13:56:54;;;;;;;8.30;4.35;;;;;;;;;;5087452;28;20035;-49
2021/06/24 13:59:20;;;;;;;5.13;3.50;;;;;;;;;;5093771;28;20499;-49
2021/06/24 14:01:46;;;;;;;8.73;4.35;;;;;;;;;;5093760;28;20055;-48
2021/06/24 14:04:13;;;;;;;7.88;4.78;;;;;;;;;;5093719;28;20081;-48
2021/06/24 14:06:39;;;;;;;13.57;4.63;;;;;;;;;;5089098;28;20058;-49
2021/06/24 14:09:06;;;;;;;12.23;4.35;;;;;;;;;;5073821;28;20077;-48
2021/06/24 14:11:32;;;;;;;6.25;4.22;;;;;;;;;;5091249;28;20368;-48
2021/06/24 14:13:58;;;;;;;8.40;4.65;;;;;;;;;;5093961;28;20107;-48
2021/06/24 14:16:24;;;;;;;13.63;4.68;;;;;;;;;;5087948;28;20020;-47
2021/06/24 14:18:50;;;;;;;10.13;4.10;;;;;;;;;;5088508;28;20028;-47
2021/06/24 14:21:18;;;;;;;9.52;4.18;;;;;;;;;;5090170;28;20020;-48
2021/06/24 14:23:45;;;;;;;8.13;4.57;;;;;;;;;;5080115;28;20368;-48
2021/06/24 14:26:11;;;;;;;7.38;4.05;;;;;;;;;;5088059;28;20055;-48
2021/06/24 14:28:38;;;;;;;7.60;4.55;;;;;;;;;;5093223;28;20032;-50
2021/06/24 14:31:05;;;;;;;4.88;4.13;;;;;;;;;;5093270;28;20593;-47
2021/06/24 14:33:32;;;;;;;7.32;4.43;;;;;;;;;;5092398;28;20024;-47
2021/06/24 14:35:58;;;;;;;7.55;4.30;;;;;;;;;;5081905;28;20039;-52
2021/06/24 14:38:25;;;;;;;12.75;5.28;;;;;;;;;;5089281;28;20104;-49
2021/06/24 14:40:51;;;;;;;9.43;4.28;;;;;;;;;;5092666;28;20028;-48
2021/06/24 14:43:17;;;;;;;6.82;4.03;;;;;;;;;;5090623;28;20035;-48
2021/06/24 14:45:43;;;;;;;10.10;5.40;;;;;;;;;;5077433;28;20064;-50
2021/06/24 14:48:10;;;;;;;12.48;5.50;;;;;;;;;;5089068;28;20118;-48
2021/06/24 14:50:36;;;;;;;11.20;4.60;;;;;;;;;;5083171;28;20078;-48
2021/06/24 14:53:03;;;;;;;8.43;4.65;;;;;;;;;;5091052;28;20067;-47
2021/06/24 14:55:34;;;;;;;8.65;4.63;;;;;;;;;;5090226;28;20024;-52
2021/06/24 14:58:00;;;;;;;7.70;4.82;;;;;;;;;;5093072;28;20514;-48